createdAt,value
2019-02-22T00:00:57.933Z,-0.40
2019-02-22T00:03:31.897Z,-0.40
2019-02-22T00:06:00.621Z,-0.50
2019-02-22T00:08:31.756Z,-0.50
2019-02-22T00:11:03.035Z,-0.50
2019-02-22T00:13:37.116Z,-0.60
2019-02-22T00:16:04.530Z,-0.60
2019-02-22T00:18:33.067Z,-0.70
2019-02-22T00:21:02.991Z,-0.70
2019-02-22T00:23:33.394Z,-0.70
2019-02-22T00:26:02.159Z,-0.80
2019-02-22T00:28:32.052Z,-0.80
2019-02-22T00:31:02.236Z,-0.80
2019-02-22T00:33:33.090Z,-0.70
2019-02-22T00:36:03.199Z,-0.80
2019-02-22T00:38:32.661Z,-0.80
2019-02-22T00:41:02.507Z,-0.70
2019-02-22T00:43:31.390Z,-0.80
2019-02-22T00:46:01.712Z,-0.80
2019-02-22T00:48:30.703Z,-0.80
2019-02-22T00:51:00.569Z,-0.80
2019-02-22T00:53:30.921Z,-0.80
2019-02-22T00:56:01.309Z,-0.80
2019-02-22T00:58:32.277Z,-0.80
2019-02-22T01:01:08.391Z,-0.90
2019-02-22T01:03:38.892Z,-0.90
2019-02-22T01:06:10.875Z,-1.00
2019-02-22T01:08:45.598Z,-1.00
2019-02-22T01:11:19.411Z,-1.10
2019-02-22T01:13:48.815Z,-1.00
2019-02-22T01:16:17.619Z,-1.10
2019-02-22T01:18:47.430Z,-1.10
2019-02-22T01:21:17.946Z,-1.10
2019-02-22T01:23:48.163Z,-1.10
2019-02-22T01:26:24.231Z,-1.10
2019-02-22T01:28:54.624Z,-1.10
2019-02-22T01:31:23.866Z,-1.10
2019-02-22T01:33:54.364Z,-1.20
2019-02-22T01:36:23.978Z,-1.20
2019-02-22T01:38:54.308Z,-1.20
2019-02-22T01:41:23.421Z,-1.20
2019-02-22T01:43:52.125Z,-1.30
2019-02-22T01:46:20.808Z,-1.30
2019-02-22T01:48:49.502Z,-1.30
2019-02-22T01:51:20.406Z,-1.30
2019-02-22T01:53:49.575Z,-1.30
2019-02-22T01:56:18.320Z,-1.40
2019-02-22T01:58:49.003Z,-1.40
2019-02-22T02:01:19.014Z,-1.40
2019-02-22T02:03:47.836Z,-1.40
2019-02-22T02:06:21.239Z,-1.40
2019-02-22T02:08:52.270Z,-1.40
2019-02-22T02:11:24.640Z,-1.40
2019-02-22T02:13:58.835Z,-1.40
2019-02-22T02:16:29.425Z,-1.40
2019-02-22T02:19:00.355Z,-1.40
2019-02-22T02:21:30.918Z,-1.40
2019-02-22T02:24:01.133Z,-1.40
2019-02-22T02:26:29.959Z,-1.40
2019-02-22T02:29:04.187Z,-1.40
2019-02-22T02:31:34.524Z,-1.40
2019-02-22T02:34:07.324Z,-1.50
2019-02-22T02:36:39.828Z,-1.50
2019-02-22T02:39:13.316Z,-1.50
2019-02-22T02:41:43.396Z,-1.50
2019-02-22T02:44:13.949Z,-1.50
2019-02-22T02:46:45.462Z,-1.50
2019-02-22T02:49:16.644Z,-1.60
2019-02-22T02:51:49.212Z,-1.60
2019-02-22T02:54:24.038Z,-1.70
2019-02-22T02:56:54.812Z,-1.70
2019-02-22T02:59:24.963Z,-1.80
2019-02-22T03:01:55.770Z,-1.80
2019-02-22T03:04:28.906Z,-1.90
2019-02-22T03:07:11.984Z,-1.90
2019-02-22T03:09:32.156Z,-1.90
2019-02-22T03:12:04.426Z,-2.00
2019-02-22T03:14:33.018Z,-2.00
2019-02-22T03:17:07.264Z,-2.00
2019-02-22T03:19:37.899Z,-2.10
2019-02-22T03:22:07.816Z,-2.10
2019-02-22T03:24:36.923Z,-2.10
2019-02-22T03:27:07.185Z,-2.10
2019-02-22T03:29:44.020Z,-2.10
2019-02-22T03:32:18.119Z,-2.10
2019-02-22T03:34:49.430Z,-2.20
2019-02-22T03:37:22.674Z,-2.20
2019-02-22T03:39:51.927Z,-2.30
2019-02-22T03:42:23.655Z,-2.30
2019-02-22T03:44:52.502Z,-2.30
2019-02-22T03:47:22.785Z,-2.40
2019-02-22T03:49:54.646Z,-2.40
2019-02-22T03:52:52.374Z,-2.50
2019-02-22T03:55:21.187Z,-2.50
2019-02-22T03:57:57.066Z,-2.50
2019-02-22T04:00:28.309Z,-2.60
2019-02-22T04:02:58.727Z,-2.70
2019-02-22T04:05:34.826Z,-2.70
2019-02-22T04:08:03.852Z,-2.70
2019-02-22T04:10:33.151Z,-2.80
2019-02-22T04:13:04.334Z,-2.80
2019-02-22T04:15:35.517Z,-2.90
2019-02-22T04:18:07.039Z,-2.90
2019-02-22T04:20:37.440Z,-2.90
2019-02-22T04:23:07.156Z,-2.90
2019-02-22T04:25:37.446Z,-2.90
2019-02-22T04:28:10.313Z,-2.90
2019-02-22T04:30:43.884Z,-2.90
2019-02-22T04:33:21.116Z,-3.00
2019-02-22T04:35:57.276Z,-3.00
2019-02-22T04:38:33.127Z,-3.00
2019-02-22T04:41:03.827Z,-3.00
2019-02-22T04:43:36.911Z,-3.00
2019-02-22T04:46:06.935Z,-3.10
2019-02-22T04:48:37.541Z,-3.10
2019-02-22T04:51:15.529Z,-3.20
2019-02-22T04:53:45.713Z,-3.20
2019-02-22T04:56:17.725Z,-3.20
2019-02-22T04:58:46.530Z,-3.30
2019-02-22T05:01:16.803Z,-3.30
2019-02-22T05:03:49.280Z,-3.40
2019-02-22T05:06:20.512Z,-3.40
2019-02-22T05:08:51.418Z,-3.50
2019-02-22T05:11:22.149Z,-3.60
2019-02-22T05:13:55.971Z,-3.50
2019-02-22T05:16:25.263Z,-3.50
2019-02-22T05:18:54.232Z,-3.50
2019-02-22T05:21:25.974Z,-3.60
2019-02-22T05:24:01.022Z,-3.60
2019-02-22T05:29:20.225Z,-3.80
2019-02-22T05:31:49.305Z,-3.80
2019-02-22T05:34:20.172Z,-3.80
2019-02-22T05:36:54.196Z,-3.80
2019-02-22T05:39:25.917Z,-3.90
2019-02-22T05:41:57.093Z,-3.90
2019-02-22T05:44:31.300Z,-4.00
2019-02-22T05:47:04.956Z,-4.00
2019-02-22T05:49:50.338Z,-4.00
2019-02-22T05:52:14.947Z,-4.00
2019-02-22T05:54:48.956Z,-4.00
2019-02-22T05:57:27.312Z,-4.00
2019-02-22T06:00:19.228Z,-4.00
2019-02-22T06:02:56.853Z,-4.00
2019-02-22T06:05:35.942Z,-4.00
2019-02-22T06:08:09.111Z,-4.00
2019-02-22T06:10:40.165Z,-4.00
2019-02-22T06:13:14.812Z,-4.00
2019-02-22T06:15:47.665Z,-4.00
2019-02-22T06:18:22.932Z,-3.90
2019-02-22T06:20:53.430Z,-3.90
2019-02-22T06:23:23.619Z,-3.80
2019-02-22T06:25:53.672Z,-3.70
2019-02-22T06:28:24.767Z,-3.60
2019-02-22T06:30:55.113Z,-3.50
2019-02-22T06:33:27.780Z,-3.50
2019-02-22T06:35:57.007Z,-3.40
2019-02-22T06:38:31.656Z,-3.40
2019-02-22T06:41:01.034Z,-3.20
2019-02-22T06:43:30.363Z,-3.10
2019-02-22T06:46:02.551Z,-3.20
2019-02-22T06:48:40.893Z,-3.30
2019-02-22T06:51:09.910Z,-2.80
2019-02-22T06:53:38.952Z,-2.30
2019-02-22T06:56:09.301Z,-2.00
2019-02-22T06:58:40.602Z,-1.60
2019-02-22T07:01:09.425Z,-1.40
2019-02-22T07:03:42.922Z,-1.10
2019-02-22T07:06:12.875Z,-0.90
2019-02-22T07:08:46.298Z,-0.90
2019-02-22T07:11:22.911Z,-0.60
2019-02-22T07:13:51.706Z,-0.60
2019-02-22T07:16:38.071Z,-0.50
2019-02-22T07:19:22.124Z,-0.30
2019-02-22T07:21:52.972Z,-0.50
2019-02-22T07:24:22.267Z,-0.60
2019-02-22T07:26:52.996Z,-0.50
2019-02-22T07:29:22.320Z,-0.40
2019-02-22T07:32:04.800Z,-0.50
2019-02-22T07:34:25.367Z,-0.40
2019-02-22T07:36:57.279Z,-0.30
2019-02-22T07:39:32.009Z,-0.10
2019-02-22T07:42:01.802Z,0.00
2019-02-22T07:44:31.977Z,0.10
2019-02-22T07:47:01.051Z,0.20
2019-02-22T07:49:30.365Z,0.20
2019-02-22T07:52:00.066Z,0.50
2019-02-22T07:54:31.028Z,0.60
2019-02-22T07:57:02.564Z,0.10
2019-02-22T07:59:32.819Z,-0.20
2019-02-22T08:02:08.147Z,-0.60
2019-02-22T08:04:36.878Z,-0.10
2019-02-22T08:07:08.682Z,0.50
2019-02-22T08:09:40.114Z,0.80
2019-02-22T08:12:11.228Z,0.30
2019-02-22T08:14:41.212Z,0.20
2019-02-22T08:17:14.589Z,0.40
2019-02-22T08:19:43.618Z,0.50
2019-02-22T08:22:14.456Z,0.60
2019-02-22T08:24:44.975Z,0.30
2019-02-22T08:27:13.647Z,-0.20
2019-02-22T08:29:44.548Z,-0.40
2019-02-22T08:32:13.859Z,-0.40
2019-02-22T08:34:45.861Z,-0.10
2019-02-22T08:37:16.602Z,0.10
2019-02-22T08:39:58.315Z,0.00
2019-02-22T08:42:20.405Z,0.10
2019-02-22T08:44:52.400Z,0.50
2019-02-22T08:47:21.159Z,0.40
2019-02-22T08:49:49.940Z,0.30
2019-02-22T08:52:21.319Z,0.30
2019-02-22T08:54:50.210Z,0.50
2019-02-22T08:57:20.368Z,0.60
2019-02-22T08:59:54.118Z,0.90
2019-02-22T09:02:22.060Z,1.10
2019-02-22T09:04:53.982Z,1.40
2019-02-22T09:07:23.790Z,1.40
2019-02-22T09:09:53.795Z,1.40
2019-02-22T09:12:27.626Z,1.50
2019-02-22T09:15:05.046Z,1.30
2019-02-22T09:17:36.933Z,1.10
2019-02-22T09:23:03.219Z,1.60
2019-02-22T09:25:31.662Z,2.00
2019-02-22T09:28:04.499Z,2.10
2019-02-22T09:30:37.126Z,1.70
2019-02-22T09:33:09.106Z,1.50
2019-02-22T09:35:39.864Z,1.70
2019-02-22T09:38:10.126Z,1.40
2019-02-22T09:40:40.597Z,1.40
2019-02-22T09:43:10.257Z,1.70
2019-02-22T09:45:39.709Z,1.50
2019-02-22T09:48:12.232Z,1.10
2019-02-22T09:50:56.304Z,0.90
2019-02-22T09:53:33.213Z,0.60
2019-02-22T09:56:03.712Z,0.70
2019-02-22T09:58:36.922Z,1.10
2019-02-22T10:01:20.756Z,1.70
2019-02-22T10:03:45.456Z,1.90
2019-02-22T10:06:15.902Z,2.60
2019-02-22T10:08:45.283Z,2.80
2019-02-22T10:11:16.725Z,1.80
2019-02-22T10:13:46.008Z,2.00
2019-02-22T10:16:20.988Z,1.70
2019-02-22T10:18:51.213Z,1.30
2019-02-22T10:21:21.274Z,1.60
2019-02-22T10:23:51.636Z,2.30
2019-02-22T10:26:22.566Z,2.20
2019-02-22T10:28:52.666Z,1.70
2019-02-22T10:31:21.357Z,1.40
2019-02-22T10:33:55.688Z,1.20
2019-02-22T10:36:24.568Z,1.10
2019-02-22T10:38:53.329Z,1.20
2019-02-22T10:41:22.511Z,1.70
2019-02-22T10:43:52.392Z,2.30
2019-02-22T10:46:22.462Z,2.30
2019-02-22T10:48:51.644Z,2.20
2019-02-22T10:51:22.055Z,2.00
2019-02-22T10:53:54.559Z,2.10
2019-02-22T10:56:23.964Z,2.20
2019-02-22T10:58:53.093Z,1.50
2019-02-22T11:01:24.108Z,1.60
2019-02-22T11:03:53.721Z,1.70
2019-02-22T11:06:24.473Z,1.90
2019-02-22T11:08:54.148Z,1.60
2019-02-22T11:11:23.177Z,1.60
2019-02-22T11:13:54.368Z,1.30
2019-02-22T11:16:24.254Z,1.10
2019-02-22T11:18:54.409Z,1.30
2019-02-22T11:21:24.854Z,1.40
2019-02-22T11:23:53.606Z,1.60
2019-02-22T11:26:22.395Z,1.90
2019-02-22T11:28:51.322Z,2.30
2019-02-22T11:31:24.872Z,2.00
2019-02-22T11:33:53.700Z,1.30
2019-02-22T11:36:30.567Z,1.10
2019-02-22T11:39:00.463Z,1.10
2019-02-22T11:41:29.213Z,0.80
2019-02-22T11:43:59.104Z,1.10
2019-02-22T11:46:29.873Z,1.10
2019-02-22T11:48:59.128Z,0.90
2019-02-22T11:51:31.735Z,1.10
2019-02-22T11:54:00.679Z,1.20
2019-02-22T11:56:30.000Z,0.90
2019-02-22T11:58:58.927Z,0.90
2019-02-22T12:01:27.715Z,1.00
2019-02-22T12:03:56.467Z,1.20
2019-02-22T12:06:26.190Z,1.20
2019-02-22T12:08:55.479Z,1.00
2019-02-22T12:11:24.833Z,0.80
2019-02-22T12:13:53.617Z,0.70
2019-02-22T12:16:26.545Z,0.70
2019-02-22T12:18:55.958Z,0.60
2019-02-22T12:21:25.635Z,0.60
2019-02-22T12:23:56.406Z,0.50
2019-02-22T12:26:27.582Z,0.50
2019-02-22T12:28:58.529Z,0.30
2019-02-22T12:31:28.409Z,0.10
2019-02-22T12:34:00.245Z,0.10
2019-02-22T12:36:29.204Z,0.10
2019-02-22T12:39:01.253Z,-0.10
2019-02-22T12:41:34.218Z,0.00
2019-02-22T12:44:10.155Z,0.10
2019-02-22T12:46:38.988Z,0.10
2019-02-22T12:49:07.911Z,0.20
2019-02-22T12:51:41.066Z,0.10
2019-02-22T12:54:09.966Z,0.00
2019-02-22T12:56:57.087Z,-0.10
2019-02-22T12:59:12.461Z,0.00
2019-02-22T13:01:42.236Z,-0.10
2019-02-22T13:04:13.685Z,-0.20
2019-02-22T13:06:42.450Z,-0.20
2019-02-22T13:09:13.632Z,-0.30
2019-02-22T13:11:45.776Z,-0.50
2019-02-22T13:14:14.489Z,-0.60
2019-02-22T13:16:44.861Z,-0.70
2019-02-22T13:19:18.071Z,-0.70
2019-02-22T13:21:57.416Z,-0.70
2019-02-22T13:24:31.284Z,-0.80
2019-02-22T13:27:04.524Z,-0.90
2019-02-22T13:29:34.057Z,-0.80
2019-02-22T13:32:04.391Z,-0.80
2019-02-22T13:34:37.538Z,-0.80
2019-02-22T13:37:10.053Z,-0.80
2019-02-22T13:39:40.572Z,-0.90
2019-02-22T13:42:10.349Z,-1.00
2019-02-22T13:44:39.926Z,-1.10
2019-02-22T13:47:09.014Z,-1.10
2019-02-22T13:49:45.348Z,-1.10
2019-02-22T13:52:18.178Z,-1.20
2019-02-22T13:54:47.801Z,-1.30
2019-02-22T13:57:17.318Z,-1.30
2019-02-22T13:59:48.088Z,-1.30
2019-02-22T14:02:19.066Z,-1.40
2019-02-22T14:04:49.373Z,-1.30
2019-02-22T14:07:19.898Z,-1.30
2019-02-22T14:09:54.872Z,-1.30
2019-02-22T14:12:28.699Z,-1.30
2019-02-22T14:15:18.786Z,-1.30
2019-02-22T14:17:53.736Z,-1.30
2019-02-22T14:20:32.616Z,-1.30
2019-02-22T14:22:58.762Z,-1.40
2019-02-22T14:25:31.086Z,-1.40
2019-02-22T14:28:06.889Z,-1.40
2019-02-22T14:30:41.401Z,-1.40
2019-02-22T14:33:18.519Z,-1.40
2019-02-22T14:35:47.768Z,-1.40
2019-02-22T14:38:22.836Z,-1.50
2019-02-22T14:40:56.372Z,-1.40
2019-02-22T14:43:24.940Z,-1.50
2019-02-22T14:45:57.416Z,-1.50
2019-02-22T14:48:30.994Z,-1.50
2019-02-22T14:51:04.025Z,-1.50
2019-02-22T14:53:34.294Z,-1.60
2019-02-22T14:56:06.466Z,-1.60
2019-02-22T14:58:38.454Z,-1.60
2019-02-22T15:01:08.120Z,-1.70
2019-02-22T15:03:37.051Z,-1.70
2019-02-22T15:06:12.246Z,-1.70
2019-02-22T15:08:45.647Z,-1.70
2019-02-22T15:11:16.608Z,-1.70
2019-02-22T15:13:47.919Z,-1.70
2019-02-22T15:16:30.417Z,-1.70
2019-02-22T15:19:02.446Z,-1.70
2019-02-22T15:21:36.871Z,-1.70
2019-02-22T15:26:59.256Z,-1.80
2019-02-22T15:29:39.713Z,-1.80
2019-02-22T15:32:10.178Z,-1.90
2019-02-22T15:34:42.224Z,-1.90
2019-02-22T15:37:18.952Z,-1.90
2019-02-22T15:39:48.099Z,-1.90
2019-02-22T15:42:18.452Z,-2.00
2019-02-22T15:44:49.972Z,-2.00
2019-02-22T15:47:23.283Z,-2.00
2019-02-22T15:49:55.062Z,-2.00
2019-02-22T15:52:35.993Z,-2.10
2019-02-22T15:55:07.219Z,-2.10
2019-02-22T15:57:39.512Z,-2.10
2019-02-22T16:03:17.841Z,-2.10
2019-02-22T16:05:55.603Z,-2.20
2019-02-22T16:08:26.124Z,-2.20
2019-02-22T16:10:58.568Z,-2.20
2019-02-22T16:13:30.097Z,-2.30
2019-02-22T16:16:00.170Z,-2.30
2019-02-22T16:18:30.316Z,-2.30
2019-02-22T16:21:03.827Z,-2.30
2019-02-22T16:23:36.063Z,-2.40
2019-02-22T16:26:09.233Z,-2.40
2019-02-22T16:28:41.800Z,-2.40
2019-02-22T16:31:10.313Z,-2.40
2019-02-22T16:33:39.239Z,-2.40
2019-02-22T16:36:08.231Z,-2.40
2019-02-22T16:38:42.558Z,-2.50
2019-02-22T16:41:13.446Z,-2.50
2019-02-22T16:43:43.547Z,-2.50
2019-02-22T16:46:12.356Z,-2.50
2019-02-22T16:48:41.834Z,-2.60
2019-02-22T16:51:12.100Z,-2.60
2019-02-22T16:53:43.646Z,-2.60
2019-02-22T16:56:12.780Z,-2.60
2019-02-22T16:58:51.618Z,-2.70
2019-02-22T17:01:21.845Z,-2.60
2019-02-22T17:03:52.233Z,-2.60
2019-02-22T17:06:22.290Z,-2.70
2019-02-22T17:08:51.176Z,-2.70
2019-02-22T17:11:24.010Z,-2.70
2019-02-22T17:13:55.992Z,-2.80
2019-02-22T17:16:26.308Z,-2.80
2019-02-22T17:18:57.891Z,-2.80
2019-02-22T17:21:26.773Z,-2.80
2019-02-22T17:23:56.935Z,-2.80
2019-02-22T17:26:33.801Z,-2.90
2019-02-22T17:28:59.904Z,-2.90
2019-02-22T17:31:30.172Z,-2.90
2019-02-22T17:34:01.785Z,-3.00
2019-02-22T17:36:31.951Z,-3.00
2019-02-22T17:39:00.818Z,-3.00
2019-02-22T17:41:38.555Z,-3.00
2019-02-22T17:44:08.480Z,-3.00
2019-02-22T17:46:56.448Z,-3.00
2019-02-22T17:49:16.651Z,-3.00
2019-02-22T17:51:49.848Z,-3.00
2019-02-22T17:54:19.148Z,-3.10
2019-02-22T17:56:50.475Z,-3.10
2019-02-22T17:59:20.823Z,-3.10
2019-02-22T18:01:50.523Z,-3.10
2019-02-22T18:04:20.312Z,-3.10
2019-02-22T18:06:49.062Z,-3.10
2019-02-22T18:09:20.990Z,-3.10
2019-02-22T18:11:50.881Z,-3.20
2019-02-22T18:14:23.184Z,-3.20
2019-02-22T18:16:52.893Z,-3.20
2019-02-22T18:19:27.290Z,-3.30
2019-02-22T18:22:00.611Z,-3.30
2019-02-22T18:24:34.527Z,-3.30
2019-02-22T18:27:06.348Z,-3.30
2019-02-22T18:29:35.886Z,-3.30
2019-02-22T18:32:07.900Z,-3.30
2019-02-22T18:34:38.205Z,-3.20
2019-02-22T18:37:08.513Z,-3.30
2019-02-22T18:39:41.492Z,-3.30
2019-02-22T18:42:20.630Z,-3.30
2019-02-22T18:47:37.364Z,-3.30
2019-02-22T18:50:18.832Z,-3.40
2019-02-22T18:52:51.767Z,-3.40
2019-02-22T18:55:23.600Z,-3.40
2019-02-22T18:57:58.843Z,-3.40
2019-02-22T19:00:37.693Z,-3.40
2019-02-22T19:03:07.655Z,-3.40
2019-02-22T19:05:44.746Z,-3.40
2019-02-22T19:08:16.421Z,-3.40
2019-02-22T19:10:46.161Z,-3.40
2019-02-22T19:13:19.179Z,-3.40
2019-02-22T19:15:54.702Z,-3.40
2019-02-22T19:18:28.400Z,-3.40
2019-02-22T19:20:57.965Z,-3.40
2019-02-22T19:23:28.919Z,-3.40
2019-02-22T19:25:57.666Z,-3.40
2019-02-22T19:28:28.546Z,-3.40
2019-02-22T19:30:58.443Z,-3.40
2019-02-22T19:33:27.642Z,-3.50
2019-02-22T19:35:57.040Z,-3.50
2019-02-22T19:38:31.940Z,-3.50
2019-02-22T19:41:02.210Z,-3.40
2019-02-22T19:43:34.459Z,-3.40
2019-02-22T19:46:03.746Z,-3.50
2019-02-22T19:48:35.459Z,-3.50
2019-02-22T19:51:06.060Z,-3.50
2019-02-22T19:53:39.507Z,-3.50
2019-02-22T19:56:12.982Z,-3.50
2019-02-22T19:58:43.986Z,-3.50
2019-02-22T20:01:12.842Z,-3.50
2019-02-22T20:03:51.192Z,-3.50
2019-02-22T20:06:20.185Z,-3.50
2019-02-22T20:08:55.301Z,-3.50
2019-02-22T20:11:28.786Z,-3.50
2019-02-22T20:13:57.563Z,-3.50
2019-02-22T20:16:27.402Z,-3.50
2019-02-22T20:19:01.825Z,-3.50
2019-02-22T20:21:34.255Z,-3.50
2019-02-22T20:24:27.167Z,-3.50
2019-02-22T20:27:00.478Z,-3.50
2019-02-22T20:29:45.519Z,-3.50
2019-02-22T20:32:18.023Z,-3.50
2019-02-22T20:34:48.291Z,-3.60
2019-02-22T20:37:20.028Z,-3.60
2019-02-22T20:39:53.551Z,-3.70
2019-02-22T20:42:25.568Z,-3.70
2019-02-22T20:44:58.043Z,-3.70
2019-02-22T20:47:30.389Z,-3.80
2019-02-22T20:50:00.612Z,-3.80
2019-02-22T20:52:36.800Z,-3.70
2019-02-22T20:55:06.399Z,-3.70
2019-02-22T20:57:35.116Z,-3.70
2019-02-22T21:00:07.676Z,-3.70
2019-02-22T21:02:37.634Z,-3.80
2019-02-22T21:05:08.602Z,-3.80
2019-02-22T21:07:42.272Z,-3.80
2019-02-22T21:10:28.118Z,-3.80
2019-02-22T21:12:58.537Z,-3.80
2019-02-22T21:15:27.234Z,-3.80
2019-02-22T21:18:00.026Z,-3.90
2019-02-22T21:20:30.030Z,-3.90
2019-02-22T21:23:01.521Z,-3.90
2019-02-22T21:25:33.057Z,-3.90
2019-02-22T21:28:03.908Z,-3.90
2019-02-22T21:30:33.579Z,-3.90
2019-02-22T21:33:04.515Z,-3.90
2019-02-22T21:35:34.445Z,-3.90
2019-02-22T21:38:04.991Z,-3.90
2019-02-22T21:40:36.134Z,-3.90
2019-02-22T21:43:05.431Z,-3.90
2019-02-22T21:45:34.232Z,-4.00
2019-02-22T21:48:04.856Z,-4.00
2019-02-22T21:50:37.757Z,-4.00
2019-02-22T21:53:08.048Z,-3.90
2019-02-22T21:55:39.472Z,-4.00
2019-02-22T21:58:15.401Z,-4.00
2019-02-22T22:00:47.513Z,-4.00
2019-02-22T22:03:21.361Z,-3.90
2019-02-22T22:05:50.955Z,-3.90
2019-02-22T22:08:21.597Z,-4.00
2019-02-22T22:10:50.333Z,-4.00
2019-02-22T22:13:19.094Z,-4.00
2019-02-22T22:15:49.803Z,-4.00
2019-02-22T22:18:18.762Z,-4.10
2019-02-22T22:20:49.084Z,-4.10
2019-02-22T22:23:20.450Z,-4.10
2019-02-22T22:25:50.147Z,-4.10
2019-02-22T22:28:22.952Z,-4.20
2019-02-22T22:30:51.817Z,-4.20
2019-02-22T22:33:20.616Z,-4.20
2019-02-22T22:35:49.326Z,-4.20
2019-02-22T22:38:18.267Z,-4.30
2019-02-22T22:40:48.530Z,-4.30
2019-02-22T22:43:17.804Z,-4.30
2019-02-22T22:45:46.556Z,-4.30
2019-02-22T22:48:16.959Z,-4.30
2019-02-22T22:50:48.812Z,-4.30
2019-02-22T22:53:18.118Z,-4.30
2019-02-22T22:55:48.744Z,-4.30
2019-02-22T22:58:18.627Z,-4.40
2019-02-22T23:00:54.029Z,-4.40
2019-02-22T23:03:29.106Z,-4.40
2019-02-22T23:05:59.735Z,-4.40
2019-02-22T23:08:28.432Z,-4.40
2019-02-22T23:10:58.724Z,-4.40
2019-02-22T23:13:29.318Z,-4.30
2019-02-22T23:15:58.227Z,-4.30
2019-02-22T23:18:27.535Z,-4.30
2019-02-22T23:20:58.845Z,-4.40
2019-02-22T23:23:28.651Z,-4.40
2019-02-22T23:25:58.160Z,-4.40
2019-02-22T23:28:27.055Z,-4.40
2019-02-22T23:30:58.535Z,-4.40
2019-02-22T23:33:28.723Z,-4.40
2019-02-22T23:36:00.163Z,-4.40
2019-02-22T23:38:29.773Z,-4.50
2019-02-22T23:40:59.832Z,-4.50
2019-02-22T23:43:31.776Z,-4.50
2019-02-22T23:46:00.577Z,-4.60
2019-02-22T23:48:30.392Z,-4.60
2019-02-22T23:51:00.077Z,-4.60
2019-02-22T23:53:29.037Z,-4.60
2019-02-22T23:55:58.399Z,-4.60
2019-02-22T23:58:28.030Z,-4.60
